Time;durP1;ratioP1;P1;durP2;ratioP2;P2;SDS_P1;SDS_P2;PMS_P1;PMS_P2;Temp;Humidity;BMP_temperature;BMP_pressure;BME280_temperature;BME280_humidity;BME280_pressure;Samples;Min_cycle;Max_cycle;Signal;HPM_P1;HPM_P2
2023/01/01 00:02:08;;;;;;;44.53;31.07;;;;;;;;;;5055344;28;20072;-65
2023/01/01 00:04:34;;;;;;;48.40;25.00;;;;;;;;;;5051689;28;20041;-65
2023/01/01 00:07:01;;;;;;;39.60;22.67;;;;;;;;;;5058467;28;20053;-65
2023/01/01 00:12:11;;;;;;;34.13;25.73;;;;;;;;;;5054592;28;20507;-65
2023/01/01 00:14:38;;;;;;;36.90;21.53;;;;;;;;;;5054911;28;20081;-65
2023/01/01 00:17:04;;;;;;;44.60;25.63;;;;;;;;;;5058250;28;20055;-65
2023/01/01 00:19:30;;;;;;;49.17;29.20;;;;;;;;;;5060096;28;20052;-65
2023/01/01 00:21:56;;;;;;;38.73;24.70;;;;;;;;;;5060281;28;20458;-66
2023/01/01 00:24:22;;;;;;;28.60;17.40;;;;;;;;;;5060570;28;20048;-66
2023/01/01 00:26:48;;;;;;;41.43;24.80;;;;;;;;;;5062353;28;20117;-65
2023/01/01 00:29:14;;;;;;;32.17;17.80;;;;;;;;;;5059859;28;20060;-66
2023/01/01 00:31:40;;;;;;;23.83;12.70;;;;;;;;;;5059080;28;20552;-66
2023/01/01 00:34:06;;;;;;;31.20;18.47;;;;;;;;;;5059946;28;20418;-65
2023/01/01 00:36:33;;;;;;;29.83;13.87;;;;;;;;;;5056226;28;20049;-66
2023/01/01 00:38:59;;;;;;;34.07;17.13;;;;;;;;;;5063889;28;20079;-65
2023/01/01 00:41:25;;;;;;;31.03;16.23;;;;;;;;;;5057001;28;20056;-65
2023/01/01 00:43:51;;;;;;;31.80;15.80;;;;;;;;;;5058093;28;20441;-65
2023/01/01 00:46:17;;;;;;;27.57;15.33;;;;;;;;;;5066227;28;20577;-65
2023/01/01 00:48:43;;;;;;;28.60;14.80;;;;;;;;;;5061341;28;20110;-65
2023/01/01 00:51:09;;;;;;;35.33;14.47;;;;;;;;;;5065340;28;20450;-66
2023/01/01 00:53:35;;;;;;;25.77;13.37;;;;;;;;;;5066802;28;20514;-65
2023/01/01 00:56:02;;;;;;;26.93;12.47;;;;;;;;;;5070145;28;20044;-66
2023/01/01 00:58:28;;;;;;;25.90;14.83;;;;;;;;;;5058372;28;20458;-65
2023/01/01 01:00:54;;;;;;;23.03;12.90;;;;;;;;;;5051260;28;20048;-66
2023/01/01 01:03:27;;;;;;;23.83;13.37;;;;;;;;;;5049768;28;20048;-65
2023/01/01 01:06:02;;;;;;;22.03;12.90;;;;;;;;;;5051319;28;20075;-65
2023/01/01 01:08:29;;;;;;;22.80;14.40;;;;;;;;;;5050860;28;20564;-65
2023/01/01 01:10:55;;;;;;;22.70;13.33;;;;;;;;;;5050859;28;20041;-65
2023/01/01 01:13:22;;;;;;;30.40;15.60;;;;;;;;;;5050617;28;20041;-65
2023/01/01 01:15:48;;;;;;;23.97;13.97;;;;;;;;;;5049274;28;20041;-65
2023/01/01 01:18:14;;;;;;;34.80;13.90;;;;;;;;;;5056569;28;20037;-65
2023/01/01 01:20:40;;;;;;;29.57;16.57;;;;;;;;;;5059234;28;20041;-65
2023/01/01 01:23:06;;;;;;;29.30;13.37;;;;;;;;;;5057596;28;20051;-65
2023/01/01 01:25:32;;;;;;;23.90;14.63;;;;;;;;;;5058950;28;20057;-65
2023/01/01 01:27:58;;;;;;;26.00;16.97;;;;;;;;;;5061959;28;20047;-65
2023/01/01 01:30:24;;;;;;;23.00;15.10;;;;;;;;;;5054824;28;20115;-65
2023/01/01 01:32:50;;;;;;;28.13;13.83;;;;;;;;;;5057077;28;20041;-66
2023/01/01 01:35:16;;;;;;;24.73;14.60;;;;;;;;;;5060223;28;20114;-65
2023/01/01 01:37:42;;;;;;;29.00;13.77;;;;;;;;;;5058701;28;20041;-65
2023/01/01 01:40:09;;;;;;;22.10;14.87;;;;;;;;;;5057903;28;20444;-66
2023/01/01 01:42:36;;;;;;;29.03;14.80;;;;;;;;;;5058904;28;20076;-65
2023/01/01 01:45:02;;;;;;;27.53;15.37;;;;;;;;;;5057576;28;20608;-65
2023/01/01 01:47:37;;;;;;;25.57;14.80;;;;;;;;;;5059167;28;20422;-65
2023/01/01 01:50:12;;;;;;;31.63;15.90;;;;;;;;;;5061741;28;20056;-66
2023/01/01 01:52:41;;;;;;;35.00;17.60;;;;;;;;;;5060831;28;20040;-66
2023/01/01 01:55:09;;;;;;;31.30;17.57;;;;;;;;;;5049019;28;20076;-66
2023/01/01 01:57:36;;;;;;;30.30;18.77;;;;;;;;;;5049330;28;20111;-66
2023/01/01 02:00:03;;;;;;;35.87;18.27;;;;;;;;;;5049344;28;20167;-65
2023/01/01 02:02:43;;;;;;;31.53;17.30;;;;;;;;;;5048214;28;20108;-66
2023/01/01 02:05:09;;;;;;;30.80;16.73;;;;;;;;;;5049367;28;20060;-66
2023/01/01 02:07:35;;;;;;;27.80;15.83;;;;;;;;;;5050079;28;20045;-66
2023/01/01 02:10:02;;;;;;;30.47;15.80;;;;;;;;;;5059525;28;20045;-66
2023/01/01 02:12:28;;;;;;;28.27;14.87;;;;;;;;;;5055757;28;20044;-66
2023/01/01 02:14:55;;;;;;;23.97;13.23;;;;;;;;;;5060093;28;20116;-65
2023/01/01 02:17:31;;;;;;;30.20;14.17;;;;;;;;;;5059160;28;20387;-66
2023/01/01 02:19:57;;;;;;;25.43;14.00;;;;;;;;;;5056601;28;20506;-65
2023/01/01 02:22:28;;;;;;;22.77;12.67;;;;;;;;;;5061066;28;20050;-66
2023/01/01 02:25:19;;;;;;;29.37;13.30;;;;;;;;;;5056476;28;20423;-66
2023/01/01 02:27:45;;;;;;;22.47;11.87;;;;;;;;;;5062026;28;20052;-66
2023/01/01 02:30:11;;;;;;;25.13;10.87;;;;;;;;;;5058200;28;20147;-66
2023/01/01 02:32:46;;;;;;;20.40;10.27;;;;;;;;;;5054787;28;20045;-66
2023/01/01 02:35:33;;;;;;;23.57;10.00;;;;;;;;;;5056295;28;20083;-66
2023/01/01 02:38:04;;;;;;;21.23;9.73;;;;;;;;;;5058129;28;20047;-66
2023/01/01 02:40:30;;;;;;;18.67;8.20;;;;;;;;;;5058540;28;20041;-65
2023/01/01 02:42:56;;;;;;;17.60;7.47;;;;;;;;;;5053808;28;20101;-65
2023/01/01 02:45:23;;;;;;;19.30;7.77;;;;;;;;;;5056672;28;20060;-65
2023/01/01 02:47:49;;;;;;;19.50;7.03;;;;;;;;;;5061267;28;20467;-65
2023/01/01 02:50:18;;;;;;;20.37;6.73;;;;;;;;;;5054255;28;20048;-65
2023/01/01 02:52:44;;;;;;;17.63;6.17;;;;;;;;;;5055433;28;20051;-65
2023/01/01 02:55:25;;;;;;;14.90;6.17;;;;;;;;;;5056305;28;20040;-65
2023/01/01 02:57:56;;;;;;;15.63;5.53;;;;;;;;;;5058265;28;20396;-65
2023/01/01 03:00:30;;;;;;;10.13;4.50;;;;;;;;;;5053618;28;20041;-65
2023/01/01 03:03:16;;;;;;;13.40;5.43;;;;;;;;;;5055062;28;20040;-65
2023/01/01 03:08:35;;;;;;;12.37;5.00;;;;;;;;;;5059337;28;20443;-64
2023/01/01 03:11:07;;;;;;;13.43;3.90;;;;;;;;;;5054336;28;20422;-65
2023/01/01 03:13:43;;;;;;;9.67;3.73;;;;;;;;;;5059042;28;20138;-65
2023/01/01 03:16:24;;;;;;;15.10;4.10;;;;;;;;;;5056832;28;20064;-65
2023/01/01 03:19:09;;;;;;;11.50;4.63;;;;;;;;;;5058708;28;20139;-65
2023/01/01 03:21:37;;;;;;;15.93;3.63;;;;;;;;;;5056660;28;20048;-64
2023/01/01 03:24:04;;;;;;;10.50;3.63;;;;;;;;;;5055737;28;20044;-65
2023/01/01 03:26:33;;;;;;;12.07;3.43;;;;;;;;;;5055694;28;20041;-65
2023/01/01 03:29:01;;;;;;;11.37;4.50;;;;;;;;;;5058659;28;20037;-65
2023/01/01 03:31:27;;;;;;;13.87;3.83;;;;;;;;;;5056810;28;20046;-64
2023/01/01 03:33:56;;;;;;;10.60;3.53;;;;;;;;;;5059290;28;20049;-64
2023/01/01 03:36:25;;;;;;;9.83;2.93;;;;;;;;;;5056991;28;20041;-64
2023/01/01 03:39:00;;;;;;;10.20;4.03;;;;;;;;;;5057458;28;20038;-65
2023/01/01 03:41:45;;;;;;;7.73;2.30;;;;;;;;;;5055892;28;20045;-64
2023/01/01 03:44:17;;;;;;;9.13;2.80;;;;;;;;;;5058966;28;20040;-65
2023/01/01 03:46:44;;;;;;;9.17;2.90;;;;;;;;;;5053275;28;20060;-64
2023/01/01 03:49:11;;;;;;;10.17;2.87;;;;;;;;;;5058219;28;20049;-64
2023/01/01 03:51:40;;;;;;;9.93;2.40;;;;;;;;;;5057978;28;20083;-64
2023/01/01 03:54:08;;;;;;;8.47;2.83;;;;;;;;;;5060668;28;20055;-64
2023/01/01 03:56:40;;;;;;;7.67;2.70;;;;;;;;;;5056435;28;20886;-63
2023/01/01 03:59:09;;;;;;;10.20;2.87;;;;;;;;;;5059067;28;20037;-64
2023/01/01 04:01:37;;;;;;;6.33;2.30;;;;;;;;;;5060321;28;20048;-64
2023/01/01 04:04:04;;;;;;;11.57;2.47;;;;;;;;;;5061461;28;20063;-64
2023/01/01 04:06:32;;;;;;;9.60;3.33;;;;;;;;;;5061892;28;20124;-64
2023/01/01 04:08:58;;;;;;;12.33;3.40;;;;;;;;;;5063834;28;20040;-64
2023/01/01 04:14:12;;;;;;;8.30;3.03;;;;;;;;;;5058648;28;20090;-64
2023/01/01 04:16:38;;;;;;;8.07;2.63;;;;;;;;;;5059176;28;20048;-64
2023/01/01 04:19:07;;;;;;;11.43;3.37;;;;;;;;;;5057838;28;20056;-63
2023/01/01 04:21:33;;;;;;;6.07;1.87;;;;;;;;;;5064678;28;20110;-64
2023/01/01 04:23:59;;;;;;;7.93;2.03;;;;;;;;;;5063053;28;20036;-64
2023/01/01 04:26:25;;;;;;;10.20;2.30;;;;;;;;;;5059152;28;20041;-64
2023/01/01 04:28:51;;;;;;;13.37;2.80;;;;;;;;;;5057534;28;20045;-63
2023/01/01 04:31:17;;;;;;;7.57;2.97;;;;;;;;;;5062350;28;20408;-63
2023/01/01 04:33:43;;;;;;;9.77;3.13;;;;;;;;;;5064974;28;20080;-63
2023/01/01 04:36:10;;;;;;;8.43;2.97;;;;;;;;;;5060104;28;20040;-64
2023/01/01 04:38:36;;;;;;;15.97;2.93;;;;;;;;;;5057797;28;20151;-64
2023/01/01 04:41:03;;;;;;;7.70;1.90;;;;;;;;;;5061204;28;20453;-64
2023/01/01 04:43:30;;;;;;;9.07;2.40;;;;;;;;;;5060048;28;20543;-64
2023/01/01 04:45:59;;;;;;;12.83;2.80;;;;;;;;;;5065871;28;20059;-64
2023/01/01 04:48:26;;;;;;;12.23;3.33;;;;;;;;;;5058727;28;20133;-64
2023/01/01 04:50:59;;;;;;;11.27;3.13;;;;;;;;;;5057125;28;20485;-64
2023/01/01 04:53:25;;;;;;;13.20;2.47;;;;;;;;;;5058698;28;20032;-63
2023/01/01 04:55:51;;;;;;;7.17;1.67;;;;;;;;;;5056958;28;20036;-64
2023/01/01 04:58:17;;;;;;;8.87;2.17;;;;;;;;;;5057800;28;20045;-63
2023/01/01 05:00:43;;;;;;;5.67;2.03;;;;;;;;;;5059747;28;20110;-64
2023/01/01 05:03:09;;;;;;;10.63;2.10;;;;;;;;;;5060690;28;20053;-64
2023/01/01 05:05:35;;;;;;;7.00;1.80;;;;;;;;;;5061985;28;20041;-63
2023/01/01 05:08:01;;;;;;;7.77;2.23;;;;;;;;;;5064485;28;20068;-63
2023/01/01 05:10:27;;;;;;;6.93;2.00;;;;;;;;;;5060441;28;20518;-64
2023/01/01 05:12:53;;;;;;;9.07;1.80;;;;;;;;;;5056372;28;20044;-64
2023/01/01 05:15:19;;;;;;;9.23;2.43;;;;;;;;;;5063755;28;20040;-63
2023/01/01 05:17:45;;;;;;;9.50;2.20;;;;;;;;;;5050617;28;20486;-63
2023/01/01 05:20:11;;;;;;;5.87;2.30;;;;;;;;;;5051067;28;20045;-63
2023/01/01 05:22:37;;;;;;;3.23;1.40;;;;;;;;;;5061987;28;20071;-63
2023/01/01 05:25:03;;;;;;;10.47;1.73;;;;;;;;;;5053570;28;20045;-64
2023/01/01 05:27:29;;;;;;;8.07;1.60;;;;;;;;;;5049893;28;20048;-64
2023/01/01 05:29:55;;;;;;;5.23;1.63;;;;;;;;;;5062501;28;20032;-63
2023/01/01 05:32:21;;;;;;;4.70;1.57;;;;;;;;;;5052313;28;20045;-64
2023/01/01 05:34:47;;;;;;;4.37;1.10;;;;;;;;;;5054453;28;20048;-63
2023/01/01 05:37:13;;;;;;;6.00;1.50;;;;;;;;;;5061789;28;20055;-64
2023/01/01 05:39:39;;;;;;;7.63;2.20;;;;;;;;;;5049915;28;20037;-63
2023/01/01 05:42:05;;;;;;;5.57;1.70;;;;;;;;;;5049969;28;20049;-63
2023/01/01 05:44:31;;;;;;;10.37;2.10;;;;;;;;;;5048723;28;20048;-63
2023/01/01 05:46:57;;;;;;;6.77;1.40;;;;;;;;;;5049842;28;20053;-63
2023/01/01 05:49:23;;;;;;;4.03;1.20;;;;;;;;;;5058249;28;20048;-63
2023/01/01 05:51:49;;;;;;;3.63;1.13;;;;;;;;;;5049883;28;20384;-63
2023/01/01 05:54:15;;;;;;;5.77;1.57;;;;;;;;;;5049561;28;20048;-64
2023/01/01 05:56:41;;;;;;;5.90;1.10;;;;;;;;;;5049362;28;20158;-63
2023/01/01 05:59:09;;;;;;;13.00;2.33;;;;;;;;;;5058498;28;20533;-63
2023/01/01 06:01:35;;;;;;;4.77;1.50;;;;;;;;;;5056874;28;20040;-63
2023/01/01 06:04:01;;;;;;;8.43;1.60;;;;;;;;;;5057603;28;20048;-63
2023/01/01 06:06:28;;;;;;;8.37;2.33;;;;;;;;;;5060368;28;20434;-63
2023/01/01 06:08:56;;;;;;;7.47;1.63;;;;;;;;;;5061457;28;20056;-63
2023/01/01 06:11:22;;;;;;;6.67;1.50;;;;;;;;;;5048333;28;20190;-63
2023/01/01 06:13:51;;;;;;;9.30;1.47;;;;;;;;;;5048343;28;20067;-63
2023/01/01 06:16:17;;;;;;;6.07;1.73;;;;;;;;;;5048965;28;20119;-63
2023/01/01 06:18:43;;;;;;;9.10;1.53;;;;;;;;;;5048884;28;20214;-63
2023/01/01 06:21:10;;;;;;;6.00;1.53;;;;;;;;;;5056185;28;20556;-63
2023/01/01 06:23:36;;;;;;;7.93;1.93;;;;;;;;;;5048598;28;20041;-63
2023/01/01 06:26:08;;;;;;;6.00;1.90;;;;;;;;;;5054361;28;20052;-63
2023/01/01 06:28:34;;;;;;;8.87;1.53;;;;;;;;;;5049079;28;20041;-63
2023/01/01 06:31:01;;;;;;;7.47;2.10;;;;;;;;;;5059679;28;20045;-63
2023/01/01 06:33:27;;;;;;;11.27;1.67;;;;;;;;;;5048957;28;20049;-63
2023/01/01 06:35:53;;;;;;;5.83;1.53;;;;;;;;;;5054500;28;20056;-63
2023/01/01 06:38:19;;;;;;;8.53;1.90;;;;;;;;;;5059454;28;20423;-63
2023/01/01 06:40:54;;;;;;;12.50;2.80;;;;;;;;;;5049110;28;20119;-63
2023/01/01 06:43:20;;;;;;;13.03;1.90;;;;;;;;;;5049252;28;20040;-62
2023/01/01 06:45:46;;;;;;;5.97;1.63;;;;;;;;;;5055423;28;20053;-63
2023/01/01 06:48:12;;;;;;;7.47;1.67;;;;;;;;;;5048690;28;20045;-63
2023/01/01 06:50:38;;;;;;;7.43;1.90;;;;;;;;;;5056735;28;20037;-63
2023/01/01 06:53:04;;;;;;;9.97;2.00;;;;;;;;;;5051072;28;20040;-63
2023/01/01 06:55:30;;;;;;;9.03;1.80;;;;;;;;;;5053716;28;20047;-63
2023/01/01 06:57:56;;;;;;;7.43;1.70;;;;;;;;;;5056393;28;20053;-63
2023/01/01 07:00:22;;;;;;;8.50;1.50;;;;;;;;;;5054269;28;20106;-63
2023/01/01 07:02:48;;;;;;;6.37;1.60;;;;;;;;;;5059636;28;20536;-63
2023/01/01 07:05:14;;;;;;;9.20;2.37;;;;;;;;;;5056752;28;20071;-63
2023/01/01 07:07:40;;;;;;;6.27;1.50;;;;;;;;;;5056820;28;20049;-63
2023/01/01 07:10:07;;;;;;;5.90;1.50;;;;;;;;;;5057103;28;20051;-63
2023/01/01 07:12:33;;;;;;;10.20;1.83;;;;;;;;;;5055637;28;20044;-63
2023/01/01 07:14:59;;;;;;;8.63;1.97;;;;;;;;;;5058478;28;20402;-62
2023/01/01 07:17:25;;;;;;;7.07;1.70;;;;;;;;;;5056776;28;20071;-63
2023/01/01 07:19:51;;;;;;;12.20;2.00;;;;;;;;;;5057335;28;20048;-63
2023/01/01 07:22:17;;;;;;;10.00;2.10;;;;;;;;;;5056625;28;20055;-63
2023/01/01 07:24:43;;;;;;;8.87;2.03;;;;;;;;;;5057338;28;20053;-63
2023/01/01 07:27:09;;;;;;;16.77;2.33;;;;;;;;;;5056969;28;20041;-63
2023/01/01 07:29:35;;;;;;;8.00;1.60;;;;;;;;;;5055651;28;20041;-63
2023/01/01 07:32:02;;;;;;;8.67;1.73;;;;;;;;;;5058180;28;20048;-63
2023/01/01 07:34:28;;;;;;;10.20;2.10;;;;;;;;;;5057311;28;20094;-63
2023/01/01 07:36:55;;;;;;;7.00;1.60;;;;;;;;;;5058307;28;20472;-64
2023/01/01 07:39:21;;;;;;;10.23;1.93;;;;;;;;;;5056760;28;20064;-63
2023/01/01 07:41:47;;;;;;;6.03;1.23;;;;;;;;;;5057729;28;20541;-63
2023/01/01 07:44:13;;;;;;;9.23;2.30;;;;;;;;;;5054199;28;20045;-63
2023/01/01 07:46:39;;;;;;;11.57;2.17;;;;;;;;;;5054921;28;20116;-63
2023/01/01 07:49:05;;;;;;;8.73;1.57;;;;;;;;;;5054756;28;20037;-63
2023/01/01 07:51:31;;;;;;;5.97;1.73;;;;;;;;;;5055614;28;20098;-63
2023/01/01 07:53:57;;;;;;;4.70;1.40;;;;;;;;;;5056057;28;20053;-63
2023/01/01 07:56:24;;;;;;;10.27;2.07;;;;;;;;;;5058243;28;20526;-62
2023/01/01 07:58:50;;;;;;;23.77;3.47;;;;;;;;;;5057044;28;20111;-63
2023/01/01 08:01:16;;;;;;;11.27;1.87;;;;;;;;;;5055580;28;20045;-62
2023/01/01 08:03:42;;;;;;;12.67;2.67;;;;;;;;;;5061994;28;20055;-63
2023/01/01 08:06:09;;;;;;;8.83;2.03;;;;;;;;;;5048722;28;20518;-62
2023/01/01 08:08:35;;;;;;;15.27;4.07;;;;;;;;;;5064807;28;20051;-62
2023/01/01 08:11:02;;;;;;;12.10;2.33;;;;;;;;;;5064046;28;20135;-62
2023/01/01 08:13:28;;;;;;;8.43;1.83;;;;;;;;;;5062499;28;20041;-62
2023/01/01 08:15:56;;;;;;;8.97;1.73;;;;;;;;;;5066301;28;20106;-61
2023/01/01 08:18:22;;;;;;;11.23;2.53;;;;;;;;;;5047636;28;20531;-62
2023/01/01 08:20:48;;;;;;;10.40;2.47;;;;;;;;;;5047617;28;20091;-62
2023/01/01 08:23:14;;;;;;;14.03;2.70;;;;;;;;;;5050475;28;20406;-63
2023/01/01 08:25:40;;;;;;;8.40;2.17;;;;;;;;;;5050299;28;20056;-62
2023/01/01 08:28:06;;;;;;;7.87;1.90;;;;;;;;;;5047886;28;20041;-63
2023/01/01 08:30:32;;;;;;;11.57;2.37;;;;;;;;;;5047604;28;20048;-63
2023/01/01 08:32:58;;;;;;;11.77;3.40;;;;;;;;;;5055044;28;20037;-62
2023/01/01 08:35:24;;;;;;;11.17;2.77;;;;;;;;;;5047307;28;20076;-62
2023/01/01 08:37:50;;;;;;;11.07;2.10;;;;;;;;;;5048659;28;20037;-64
2023/01/01 08:40:16;;;;;;;13.40;1.93;;;;;;;;;;5050749;28;20514;-64
2023/01/01 08:42:42;;;;;;;11.50;2.37;;;;;;;;;;5055020;28;20041;-64
2023/01/01 08:45:08;;;;;;;7.07;1.90;;;;;;;;;;5059446;28;20052;-63
2023/01/01 08:47:35;;;;;;;9.00;1.70;;;;;;;;;;5064799;28;20127;-63
2023/01/01 08:50:01;;;;;;;11.60;2.43;;;;;;;;;;5067902;28;20037;-63
2023/01/01 08:52:27;;;;;;;10.80;2.50;;;;;;;;;;5063198;28;20514;-63
2023/01/01 08:54:53;;;;;;;16.87;2.50;;;;;;;;;;5056173;28;20499;-63
2023/01/01 08:57:19;;;;;;;8.60;2.40;;;;;;;;;;5049212;28;20045;-63
2023/01/01 08:59:45;;;;;;;10.63;2.20;;;;;;;;;;5050527;28;20041;-62
2023/01/01 09:02:11;;;;;;;11.77;2.10;;;;;;;;;;5065194;28;20044;-63
2023/01/01 09:04:37;;;;;;;17.73;3.00;;;;;;;;;;5068087;28;20048;-63
2023/01/01 09:07:03;;;;;;;7.13;2.20;;;;;;;;;;5070787;28;20044;-62
2023/01/01 09:09:29;;;;;;;12.93;2.60;;;;;;;;;;5070974;28;21153;-63
2023/01/01 09:12:02;;;;;;;14.30;4.20;;;;;;;;;;5064991;28;20167;-63
2023/01/01 09:14:29;;;;;;;14.07;3.08;;;;;;;;;;5056824;28;20048;-62
2023/01/01 09:16:55;;;;;;;11.87;2.50;;;;;;;;;;5054667;28;20045;-62
2023/01/01 09:19:21;;;;;;;11.70;2.47;;;;;;;;;;5070717;28;20071;-63
2023/01/01 09:21:47;;;;;;;9.73;2.10;;;;;;;;;;5066576;28;20740;-63
2023/01/01 09:24:13;;;;;;;10.07;1.90;;;;;;;;;;5070881;28;20414;-63
2023/01/01 09:26:39;;;;;;;12.30;2.37;;;;;;;;;;5069215;28;20053;-62
2023/01/01 09:29:06;;;;;;;15.67;2.13;;;;;;;;;;5070699;28;20091;-63
2023/01/01 09:31:32;;;;;;;12.53;2.37;;;;;;;;;;5055011;28;20636;-62
2023/01/01 09:33:58;;;;;;;13.77;2.03;;;;;;;;;;5056734;28;20454;-62
2023/01/01 09:36:24;;;;;;;11.03;2.23;;;;;;;;;;5056663;28;20052;-63
2023/01/01 09:38:50;;;;;;;11.77;2.07;;;;;;;;;;5050380;28;20407;-63
2023/01/01 09:41:22;;;;;;;13.60;2.30;;;;;;;;;;5049925;28;20045;-63
2023/01/01 09:43:57;;;;;;;8.70;2.33;;;;;;;;;;5067457;28;20042;-62
2023/01/01 09:46:24;;;;;;;10.43;2.10;;;;;;;;;;5049846;28;20072;-62
2023/01/01 09:48:58;;;;;;;15.83;2.43;;;;;;;;;;5049549;28;20045;-62
2023/01/01 09:51:26;;;;;;;9.90;2.53;;;;;;;;;;5053510;28;20102;-62
2023/01/01 09:53:59;;;;;;;13.43;2.77;;;;;;;;;;5064822;28;20094;-62
2023/01/01 09:56:29;;;;;;;12.00;2.20;;;;;;;;;;5055674;28;20041;-62
2023/01/01 09:58:58;;;;;;;11.33;3.13;;;;;;;;;;5069822;28;20051;-63
2023/01/01 10:01:48;;;;;;;9.63;2.30;;;;;;;;;;5068409;28;20055;-63
2023/01/01 10:04:33;;;;;;;7.07;1.47;;;;;;;;;;5066159;28;20056;-62
2023/01/01 10:07:08;;;;;;;10.60;2.80;;;;;;;;;;5050993;28;20081;-63
2023/01/01 10:09:39;;;;;;;10.47;1.90;;;;;;;;;;5049813;28;20053;-62
2023/01/01 10:12:16;;;;;;;13.27;3.27;;;;;;;;;;5049559;28;20514;-62
2023/01/01 10:14:44;;;;;;;11.43;1.53;;;;;;;;;;5054643;28;20445;-62
2023/01/01 10:17:19;;;;;;;10.27;2.17;;;;;;;;;;5060997;28;20370;-63
2023/01/01 10:19:47;;;;;;;8.53;1.93;;;;;;;;;;5048925;28;20045;-62
2023/01/01 10:22:16;;;;;;;8.77;1.83;;;;;;;;;;5060193;28;20448;-62
2023/01/01 10:24:59;;;;;;;22.50;3.43;;;;;;;;;;5067799;28;20048;-62
2023/01/01 10:27:25;;;;;;;9.40;2.00;;;;;;;;;;5067430;28;20056;-63
2023/01/01 10:29:51;;;;;;;10.53;1.93;;;;;;;;;;5061665;28;20056;-62
2023/01/01 10:32:18;;;;;;;12.40;2.73;;;;;;;;;;5068444;28;20051;-62
2023/01/01 10:34:44;;;;;;;13.67;2.20;;;;;;;;;;5068851;28;20048;-62
2023/01/01 10:37:11;;;;;;;7.50;2.20;;;;;;;;;;5069180;28;20048;-63
2023/01/01 10:39:37;;;;;;;14.13;3.10;;;;;;;;;;5054587;28;20037;-62
2023/01/01 10:42:03;;;;;;;7.53;1.90;;;;;;;;;;5048568;28;20049;-62
2023/01/01 10:44:32;;;;;;;9.83;2.00;;;;;;;;;;5050843;28;20135;-62
2023/01/01 10:46:59;;;;;;;10.63;2.27;;;;;;;;;;5066957;28;20055;-62
2023/01/01 10:49:25;;;;;;;14.00;2.97;;;;;;;;;;5069120;28;20045;-63
2023/01/01 10:51:52;;;;;;;14.30;2.73;;;;;;;;;;5069256;28;20085;-62
2023/01/01 10:54:24;;;;;;;8.17;2.50;;;;;;;;;;5056912;28;20182;-61
2023/01/01 10:56:50;;;;;;;15.37;2.43;;;;;;;;;;5064932;28;20044;-61
2023/01/01 10:59:34;;;;;;;10.43;1.90;;;;;;;;;;5068711;28;20093;-61
2023/01/01 11:02:14;;;;;;;8.65;1.80;;;;;;;;;;5068843;28;20109;-61
2023/01/01 11:04:40;;;;;;;12.20;2.77;;;;;;;;;;5050993;28;20044;-61
2023/01/01 11:07:07;;;;;;;7.93;2.47;;;;;;;;;;5066622;28;20071;-61
2023/01/01 11:09:38;;;;;;;12.93;2.83;;;;;;;;;;5049603;28;20090;-60
2023/01/01 11:12:05;;;;;;;13.13;2.90;;;;;;;;;;5047365;28;20045;-61
2023/01/01 11:14:31;;;;;;;12.43;3.20;;;;;;;;;;5047443;28;20048;-60
2023/01/01 11:16:58;;;;;;;12.30;2.80;;;;;;;;;;5053435;28;20040;-61
2023/01/01 11:19:28;;;;;;;11.40;3.30;;;;;;;;;;5059979;28;20041;-61
2023/01/01 11:21:54;;;;;;;9.80;2.70;;;;;;;;;;5056356;28;20566;-61
2023/01/01 11:24:21;;;;;;;13.67;3.10;;;;;;;;;;5059193;28;20491;-60
2023/01/01 11:26:48;;;;;;;17.07;2.80;;;;;;;;;;5055648;28;20044;-61
2023/01/01 11:29:17;;;;;;;9.20;2.33;;;;;;;;;;5053160;28;20402;-60
2023/01/01 11:31:44;;;;;;;13.17;2.60;;;;;;;;;;5048940;28;20045;-62
2023/01/01 11:34:29;;;;;;;12.13;2.30;;;;;;;;;;5057743;28;20036;-62
2023/01/01 11:37:27;;;;;;;10.77;2.30;;;;;;;;;;5058790;28;20041;-62
2023/01/01 11:39:55;;;;;;;10.37;2.80;;;;;;;;;;5037488;28;20060;-61
2023/01/01 11:42:25;;;;;;;14.03;2.70;;;;;;;;;;5059855;28;20056;-61
2023/01/01 11:44:53;;;;;;;12.57;2.47;;;;;;;;;;5054076;28;20406;-61
2023/01/01 11:47:22;;;;;;;10.70;2.73;;;;;;;;;;5055680;28;20064;-61
2023/01/01 11:49:54;;;;;;;11.93;2.23;;;;;;;;;;5052563;28;20049;-60
2023/01/01 11:52:35;;;;;;;11.90;2.53;;;;;;;;;;5056923;28;20046;-61
2023/01/01 11:55:03;;;;;;;11.27;2.53;;;;;;;;;;5056012;28;20105;-62
2023/01/01 11:57:29;;;;;;;8.53;2.63;;;;;;;;;;5056485;28;20416;-62
2023/01/01 11:59:58;;;;;;;9.83;2.10;;;;;;;;;;5068039;28;20040;-61
2023/01/01 12:02:31;;;;;;;11.17;2.03;;;;;;;;;;5055624;28;20411;-61
2023/01/01 12:05:03;;;;;;;8.27;2.20;;;;;;;;;;5047259;28;20090;-62
2023/01/01 12:07:30;;;;;;;15.03;2.93;;;;;;;;;;5047996;28;20052;-61
2023/01/01 12:10:04;;;;;;;14.53;2.50;;;;;;;;;;5048024;28;20045;-61
2023/01/01 12:12:34;;;;;;;15.07;2.30;;;;;;;;;;5049515;28;20052;-62
2023/01/01 12:15:02;;;;;;;15.13;2.33;;;;;;;;;;5051763;28;20399;-61
2023/01/01 12:17:33;;;;;;;15.87;3.90;;;;;;;;;;5051713;28;20553;-61
2023/01/01 12:20:02;;;;;;;10.73;2.53;;;;;;;;;;5059123;28;20043;-62
2023/01/01 12:22:28;;;;;;;9.63;2.00;;;;;;;;;;5054127;28;20411;-62
2023/01/01 12:24:54;;;;;;;12.97;2.43;;;;;;;;;;5051462;28;20059;-61
2023/01/01 12:27:20;;;;;;;12.73;2.20;;;;;;;;;;5050856;28;20044;-62
2023/01/01 12:29:49;;;;;;;12.73;2.30;;;;;;;;;;5053020;28;20041;-61
2023/01/01 12:32:34;;;;;;;15.73;2.57;;;;;;;;;;5051408;28;20060;-61
2023/01/01 12:35:06;;;;;;;17.00;3.33;;;;;;;;;;5051261;28;20053;-62
2023/01/01 12:37:38;;;;;;;10.87;2.20;;;;;;;;;;5051319;28;20041;-62
2023/01/01 12:40:28;;;;;;;13.37;2.50;;;;;;;;;;5062097;28;20072;-62
2023/01/01 12:43:14;;;;;;;10.20;1.80;;;;;;;;;;5067027;28;20052;-61
2023/01/01 12:45:59;;;;;;;12.23;2.67;;;;;;;;;;5059437;28;20057;-62
2023/01/01 12:48:28;;;;;;;14.03;3.40;;;;;;;;;;5051680;28;20133;-62
2023/01/01 12:50:59;;;;;;;14.40;3.17;;;;;;;;;;5054163;28;20044;-62
2023/01/01 12:53:38;;;;;;;12.27;2.20;;;;;;;;;;5051070;28;20045;-62
2023/01/01 12:56:07;;;;;;;10.20;2.10;;;;;;;;;;5062040;28;20037;-61
2023/01/01 12:58:35;;;;;;;11.63;2.73;;;;;;;;;;5070681;28;20123;-62
2023/01/01 13:01:11;;;;;;;12.90;2.63;;;;;;;;;;5067132;28;20040;-62
2023/01/01 13:03:42;;;;;;;18.70;5.07;;;;;;;;;;5059208;28;20068;-62
2023/01/01 13:06:11;;;;;;;12.50;2.60;;;;;;;;;;5068753;28;20048;-61
2023/01/01 13:08:38;;;;;;;15.70;3.27;;;;;;;;;;5070866;28;20513;-61
2023/01/01 13:11:05;;;;;;;11.80;3.00;;;;;;;;;;5067949;28;20040;-61
2023/01/01 13:13:31;;;;;;;12.40;2.20;;;;;;;;;;5059739;28;20045;-63
2023/01/01 13:15:57;;;;;;;12.80;3.20;;;;;;;;;;5070791;28;20041;-62
2023/01/01 13:18:33;;;;;;;16.97;3.20;;;;;;;;;;5070589;28;20055;-61
2023/01/01 13:21:01;;;;;;;15.37;2.83;;;;;;;;;;5050637;28;20432;-62
2023/01/01 13:23:37;;;;;;;17.60;2.73;;;;;;;;;;5053250;28;20100;-61
2023/01/01 13:26:24;;;;;;;15.90;3.10;;;;;;;;;;5070004;28;20110;-62
2023/01/01 13:29:04;;;;;;;15.30;2.77;;;;;;;;;;5070642;28;20269;-61
2023/01/01 13:31:39;;;;;;;14.67;2.90;;;;;;;;;;5070298;28;20053;-61
2023/01/01 13:34:24;;;;;;;12.70;2.50;;;;;;;;;;5070471;28;20080;-62
2023/01/01 13:36:50;;;;;;;12.20;2.50;;;;;;;;;;5064739;28;20043;-62
2023/01/01 13:39:34;;;;;;;13.43;2.60;;;;;;;;;;5069930;28;20064;-61
2023/01/01 13:42:00;;;;;;;12.40;2.40;;;;;;;;;;5069761;28;20414;-61
2023/01/01 13:44:26;;;;;;;15.90;3.23;;;;;;;;;;5070130;28;20388;-62
2023/01/01 13:46:52;;;;;;;12.67;2.97;;;;;;;;;;5068287;28;20057;-62
2023/01/01 13:49:24;;;;;;;12.47;2.47;;;;;;;;;;5065637;28;20048;-62
2023/01/01 13:52:09;;;;;;;13.27;2.90;;;;;;;;;;5057205;28;20058;-62
2023/01/01 13:54:41;;;;;;;11.07;2.80;;;;;;;;;;5056050;28;20052;-61
2023/01/01 13:57:18;;;;;;;14.40;2.90;;;;;;;;;;5068130;28;20132;-62
2023/01/01 13:59:44;;;;;;;13.50;3.10;;;;;;;;;;5068424;28;20040;-62
2023/01/01 14:02:22;;;;;;;10.93;3.50;;;;;;;;;;5056404;28;20044;-61
2023/01/01 14:04:51;;;;;;;17.63;3.00;;;;;;;;;;5069908;28;20112;-62
2023/01/01 14:07:21;;;;;;;12.30;2.77;;;;;;;;;;5055961;28;20051;-62
2023/01/01 14:09:47;;;;;;;12.57;2.60;;;;;;;;;;5051813;28;20049;-61
2023/01/01 14:12:20;;;;;;;16.87;2.83;;;;;;;;;;5069561;28;20515;-61
2023/01/01 14:14:47;;;;;;;13.43;2.63;;;;;;;;;;5069553;28;20052;-61
2023/01/01 14:17:14;;;;;;;12.40;3.00;;;;;;;;;;5069161;28;20063;-61
2023/01/01 14:19:41;;;;;;;17.80;3.60;;;;;;;;;;5054863;28;20128;-62
2023/01/01 14:22:08;;;;;;;14.43;2.70;;;;;;;;;;5048625;28;20076;-61
2023/01/01 14:24:38;;;;;;;14.90;3.50;;;;;;;;;;5048895;28;20048;-61
2023/01/01 14:27:05;;;;;;;8.13;2.50;;;;;;;;;;5049525;28;20411;-61
2023/01/01 14:29:31;;;;;;;16.73;3.53;;;;;;;;;;5049208;28;20049;-61
2023/01/01 14:31:58;;;;;;;13.57;2.73;;;;;;;;;;5049314;28;20040;-61
2023/01/01 14:34:27;;;;;;;9.07;2.57;;;;;;;;;;5048381;28;20049;-61
2023/01/01 14:36:54;;;;;;;14.03;2.97;;;;;;;;;;5048894;28;20049;-61
2023/01/01 14:39:31;;;;;;;13.43;3.43;;;;;;;;;;5048465;28;20049;-62
2023/01/01 14:42:01;;;;;;;16.73;3.50;;;;;;;;;;5051071;28;20044;-62
2023/01/01 14:44:36;;;;;;;12.67;3.43;;;;;;;;;;5050270;28;20099;-62
2023/01/01 14:47:03;;;;;;;14.67;2.93;;;;;;;;;;5058678;28;20555;-62
2023/01/01 14:49:31;;;;;;;17.03;3.50;;;;;;;;;;5068471;28;20052;-62